Time;durP1;ratioP1;P1;durP2;ratioP2;P2;SDS_P1;SDS_P2;PMS_P1;PMS_P2;Temp;Humidity;BMP_temperature;BMP_pressure;BME280_temperature;BME280_humidity;BME280_pressure;Samples;Min_cycle;Max_cycle;Signal;HPM_P1;HPM_P2
2023/10/22 00:02:10;;;;;;;3.72;2.45;;;11.90;99.90;;;;;;4992580;28;20026;-51
2023/10/22 00:04:38;;;;;;;9.60;2.00;;;11.90;99.90;;;;;;4992528;28;20038;-47
2023/10/22 00:07:04;;;;;;;5.13;2.70;;;11.90;99.90;;;;;;4992397;28;20026;-52
2023/10/22 00:09:30;;;;;;;4.75;1.92;;;11.80;99.90;;;;;;4992412;28;20058;-49
2023/10/22 00:11:55;;;;;;;3.22;1.92;;;11.80;99.90;;;;;;4992241;28;20045;-47
2023/10/22 00:14:21;;;;;;;2.50;1.85;;;11.80;99.90;;;;;;4992122;28;20106;-48
2023/10/22 00:16:46;;;;;;;6.47;2.13;;;11.80;99.90;;;;;;4991052;28;20053;-51
2023/10/22 00:19:12;;;;;;;12.98;7.13;;;11.80;99.90;;;;;;4992162;28;20030;-48
2023/10/22 00:21:37;;;;;;;66.53;33.50;;;11.80;99.90;;;;;;4992320;28;20026;-47
2023/10/22 00:24:03;;;;;;;14.60;6.85;;;11.70;99.90;;;;;;4992192;28;20513;-51
2023/10/22 00:26:29;;;;;;;4.85;2.13;;;11.80;99.90;;;;;;4992183;28;20034;-50
2023/10/22 00:28:55;;;;;;;5.15;2.33;;;11.70;99.90;;;;;;4991985;28;20485;-51
2023/10/22 00:31:20;;;;;;;4.50;2.03;;;11.70;99.90;;;;;;4992087;28;20030;-48
2023/10/22 00:33:46;;;;;;;6.78;1.92;;;11.70;99.90;;;;;;4992042;28;20109;-46
2023/10/22 00:36:11;;;;;;;3.67;2.25;;;11.70;99.90;;;;;;4992090;28;20084;-51
2023/10/22 00:38:37;;;;;;;4.75;1.75;;;11.60;99.90;;;;;;4991446;28;20034;-46
2023/10/22 00:41:02;;;;;;;5.15;2.15;;;11.60;99.90;;;;;;4991770;28;20022;-50
2023/10/22 00:43:28;;;;;;;5.57;1.88;;;11.60;99.90;;;;;;4991930;28;20042;-47
2023/10/22 00:45:54;;;;;;;6.20;2.00;;;11.60;99.90;;;;;;4991729;28;20022;-50
2023/10/22 00:48:21;;;;;;;4.90;1.95;;;11.50;99.90;;;;;;4992015;28;20161;-53
2023/10/22 00:50:47;;;;;;;6.63;2.00;;;11.50;99.90;;;;;;4990510;28;20038;-46
2023/10/22 00:53:16;;;;;;;3.95;1.90;;;11.50;99.90;;;;;;4991869;28;20078;-46
2023/10/22 00:55:45;;;;;;;2.78;2.10;;;11.50;99.90;;;;;;4991906;28;20027;-46
2023/10/22 00:58:12;;;;;;;4.88;1.83;;;11.50;99.90;;;;;;4991598;28;20023;-50
2023/10/22 01:00:39;;;;;;;3.03;1.92;;;11.40;99.90;;;;;;4991793;28;20023;-49
2023/10/22 01:03:04;;;;;;;8.57;2.60;;;11.50;99.90;;;;;;4991734;28;20027;-49
2023/10/22 01:05:31;;;;;;;9.80;1.65;;;11.50;99.90;;;;;;4990454;28;20038;-46
2023/10/22 01:07:57;;;;;;;5.05;1.80;;;11.50;99.90;;;;;;4991629;28;20027;-53
2023/10/22 01:10:22;;;;;;;5.38;1.90;;;11.50;99.90;;;;;;4991770;28;20490;-47
2023/10/22 01:12:48;;;;;;;5.13;2.10;;;11.50;99.90;;;;;;4991541;28;20049;-46
2023/10/22 01:15:13;;;;;;;4.57;2.53;;;11.50;99.90;;;;;;4991745;28;20018;-48
2023/10/22 01:17:39;;;;;;;3.25;1.77;;;11.50;99.90;;;;;;4991580;28;20478;-46
2023/10/22 01:20:05;;;;;;;2.40;1.70;;;11.50;99.90;;;;;;4991650;28;20026;-50
2023/10/22 01:22:33;;;;;;;6.45;1.77;;;11.50;99.90;;;;;;4990322;28;20495;-49
2023/10/22 01:24:59;;;;;;;4.45;1.50;;;11.50;99.90;;;;;;4991913;28;20030;-53
2023/10/22 01:27:24;;;;;;;4.72;1.70;;;11.50;99.90;;;;;;4991897;28;20403;-46
2023/10/22 01:29:50;;;;;;;5.45;1.50;;;11.50;99.90;;;;;;4992858;28;20037;-46
2023/10/22 01:32:15;;;;;;;7.40;1.50;;;11.50;99.90;;;;;;4992150;28;20518;-48
2023/10/22 01:34:41;;;;;;;4.45;1.70;;;11.50;99.90;;;;;;4991685;28;20564;-46
2023/10/22 01:37:06;;;;;;;5.47;1.73;;;11.50;99.90;;;;;;4991587;28;20023;-45
2023/10/22 01:39:32;;;;;;;9.68;2.72;;;11.50;99.90;;;;;;4992196;28;20382;-49
2023/10/22 01:41:57;;;;;;;5.75;1.80;;;11.50;99.90;;;;;;4991480;28;20466;-52
2023/10/22 01:44:23;;;;;;;4.07;1.77;;;11.40;99.90;;;;;;4991495;28;20026;-50
2023/10/22 01:46:48;;;;;;;4.82;1.50;;;11.40;99.90;;;;;;4991298;28;20034;-50
2023/10/22 01:49:14;;;;;;;3.55;1.85;;;11.40;99.90;;;;;;4991847;28;20034;-48
2023/10/22 01:51:39;;;;;;;5.70;1.55;;;11.40;99.90;;;;;;4993044;28;20581;-46
2023/10/22 01:54:06;;;;;;;4.60;1.83;;;11.40;99.90;;;;;;4994802;28;20100;-46
2023/10/22 01:56:32;;;;;;;4.43;1.75;;;11.40;99.90;;;;;;4995009;28;20061;-49
2023/10/22 01:58:58;;;;;;;5.90;1.70;;;11.40;99.90;;;;;;4993508;28;20062;-50
2023/10/22 02:01:25;;;;;;;3.90;1.48;;;11.40;99.90;;;;;;4994912;28;20051;-45
2023/10/22 02:03:51;;;;;;;2.83;1.80;;;11.40;99.90;;;;;;4994795;28;20030;-48
2023/10/22 02:06:16;;;;;;;3.83;1.33;;;11.40;99.90;;;;;;4994709;28;20457;-50
2023/10/22 02:08:42;;;;;;;4.80;1.73;;;11.30;99.90;;;;;;4993186;28;20030;-46
2023/10/22 02:11:08;;;;;;;3.63;1.35;;;11.30;99.90;;;;;;4994600;28;20100;-45
2023/10/22 02:13:33;;;;;;;4.68;1.50;;;11.30;99.90;;;;;;4994598;28;20037;-52
2023/10/22 02:15:59;;;;;;;13.23;1.85;;;11.20;99.90;;;;;;4994602;28;20375;-49
2023/10/22 02:18:25;;;;;;;4.63;1.98;;;11.20;99.90;;;;;;4994519;28;20493;-47
2023/10/22 02:20:55;;;;;;;7.40;2.30;;;11.10;99.90;;;;;;4994536;28;20063;-52
2023/10/22 02:23:21;;;;;;;3.28;1.75;;;11.10;99.90;;;;;;4994504;28;20498;-50
2023/10/22 02:25:48;;;;;;;2.65;1.80;;;11.10;99.90;;;;;;4994532;28;20026;-47
2023/10/22 02:28:13;;;;;;;2.40;1.42;;;11.10;99.90;;;;;;4994243;28;20494;-49
2023/10/22 02:30:39;;;;;;;2.13;1.50;;;11.10;99.90;;;;;;4994458;28;20084;-47
2023/10/22 02:33:04;;;;;;;1.67;1.15;;;11.00;99.90;;;;;;4993585;28;20037;-49
2023/10/22 02:35:30;;;;;;;5.85;1.85;;;11.00;99.90;;;;;;4995020;28;20025;-49
2023/10/22 02:37:56;;;;;;;3.60;1.60;;;11.00;99.90;;;;;;4994029;28;20022;-51
2023/10/22 02:40:21;;;;;;;7.47;1.85;;;11.00;99.90;;;;;;4994106;28;20513;-49
2023/10/22 02:42:48;;;;;;;8.57;1.80;;;11.00;99.90;;;;;;4994126;28;20022;-52
2023/10/22 02:45:14;;;;;;;3.05;1.52;;;11.00;99.90;;;;;;4993625;28;20506;-47
2023/10/22 02:47:39;;;;;;;5.93;1.70;;;11.00;99.90;;;;;;4993580;28;20545;-51
2023/10/22 02:50:05;;;;;;;8.02;1.90;;;11.00;99.90;;;;;;4993888;28;20046;-52
2023/10/22 02:52:31;;;;;;;4.40;1.42;;;11.20;99.90;;;;;;4994118;28;20031;-49
2023/10/22 02:54:56;;;;;;;1.42;1.15;;;11.10;99.90;;;;;;4993686;28;20410;-48
2023/10/22 02:57:22;;;;;;;4.40;2.17;;;11.00;99.90;;;;;;4993738;28;20029;-48
2023/10/22 02:59:47;;;;;;;5.97;1.42;;;10.80;99.90;;;;;;4993692;28;20097;-52
2023/10/22 03:02:13;;;;;;;4.05;1.63;;;10.80;99.90;;;;;;4993176;28;20022;-51
2023/10/22 03:04:38;;;;;;;7.80;1.55;;;10.90;99.90;;;;;;4993648;28;20035;-53
2023/10/22 03:07:04;;;;;;;5.45;1.25;;;10.70;99.90;;;;;;4993496;28;20092;-49
2023/10/22 03:09:29;;;;;;;5.43;1.40;;;10.80;99.90;;;;;;4993746;28;20038;-47
2023/10/22 03:11:55;;;;;;;9.98;1.38;;;10.80;99.90;;;;;;4993617;28;20034;-48
2023/10/22 03:14:20;;;;;;;5.22;2.17;;;10.80;99.90;;;;;;4993381;28;20034;-50
2023/10/22 03:16:47;;;;;;;10.77;2.75;;;10.80;99.90;;;;;;4993457;28;20513;-52
2023/10/22 03:19:13;;;;;;;6.38;1.35;;;10.80;99.90;;;;;;4993356;28;20330;-50
2023/10/22 03:21:38;;;;;;;6.80;1.40;;;10.80;99.90;;;;;;4993391;28;20490;-52
2023/10/22 03:24:07;;;;;;;4.47;1.40;;;10.80;99.90;;;;;;4993360;28;20375;-47
2023/10/22 03:26:34;;;;;;;5.68;1.48;;;10.80;99.90;;;;;;4993336;28;20437;-48
2023/10/22 03:29:00;;;;;;;7.15;1.02;;;10.80;99.90;;;;;;4993186;28;20026;-47
2023/10/22 03:31:26;;;;;;;6.53;1.95;;;10.80;99.90;;;;;;4993147;28;20383;-49
2023/10/22 03:33:51;;;;;;;6.80;1.70;;;10.80;99.90;;;;;;4993107;28;20070;-49
2023/10/22 03:36:17;;;;;;;9.15;1.15;;;10.70;99.90;;;;;;4993283;28;20166;-52
2023/10/22 03:38:43;;;;;;;4.25;1.58;;;10.80;99.90;;;;;;4992914;28;20033;-51
2023/10/22 03:41:09;;;;;;;5.95;1.27;;;10.80;99.90;;;;;;4992995;28;20022;-49
2023/10/22 03:43:35;;;;;;;4.90;1.48;;;10.90;99.90;;;;;;4993473;28;20438;-46
2023/10/22 03:46:01;;;;;;;2.72;1.10;;;10.90;99.90;;;;;;4992580;28;20030;-47
2023/10/22 03:48:28;;;;;;;5.07;1.98;;;10.90;99.90;;;;;;4992791;28;20027;-49
2023/10/22 03:50:54;;;;;;;4.15;1.50;;;11.00;99.90;;;;;;5013139;23;20038;-53
2023/10/22 03:53:21;;;;;;;4.85;1.88;;;11.00;99.90;;;;;;4992894;28;20076;-58
2023/10/22 03:55:47;;;;;;;7.65;1.52;;;11.10;99.90;;;;;;4991617;28;20449;-58
2023/10/22 03:58:13;;;;;;;4.82;1.70;;;11.10;99.90;;;;;;4992894;28;20084;-57
2023/10/22 04:00:38;;;;;;;10.45;1.63;;;11.10;99.90;;;;;;4991816;28;20029;-58
2023/10/22 04:03:04;;;;;;;3.70;0.90;;;11.10;99.90;;;;;;4991724;28;20509;-58
2023/10/22 04:05:29;;;;;;;3.47;1.80;;;11.10;99.90;;;;;;4992814;28;20532;-58
2023/10/22 04:07:55;;;;;;;4.57;1.35;;;11.10;99.90;;;;;;4992515;28;20113;-59
2023/10/22 04:10:20;;;;;;;5.15;1.48;;;11.00;99.90;;;;;;4991697;28;20065;-58
2023/10/22 04:12:46;;;;;;;4.47;1.25;;;11.10;99.90;;;;;;4991513;28;20056;-58
2023/10/22 04:15:12;;;;;;;6.60;1.67;;;11.10;99.90;;;;;;4990925;28;20030;-59
2023/10/22 04:17:38;;;;;;;3.65;1.08;;;11.10;99.90;;;;;;4992498;28;20030;-58
2023/10/22 04:20:04;;;;;;;3.67;1.55;;;11.10;99.90;;;;;;4992768;28;20022;-57
2023/10/22 04:22:29;;;;;;;4.03;1.52;;;11.10;99.90;;;;;;4992539;28;20065;-56
2023/10/22 04:24:55;;;;;;;8.35;2.20;;;11.10;99.90;;;;;;4992561;28;20510;-52
2023/10/22 04:27:20;;;;;;;4.25;1.35;;;11.20;99.90;;;;;;4992382;28;20053;-56
2023/10/22 04:29:46;;;;;;;3.90;1.80;;;11.10;99.90;;;;;;4992938;28;20533;-55
2023/10/22 04:32:12;;;;;;;4.18;1.75;;;11.20;99.90;;;;;;4992682;28;20022;-58
2023/10/22 04:34:38;;;;;;;7.05;1.95;;;11.20;99.90;;;;;;4992372;28;20026;-56
2023/10/22 04:37:04;;;;;;;4.90;1.70;;;11.20;99.90;;;;;;4992129;28;20030;-58
2023/10/22 04:39:30;;;;;;;6.07;1.50;;;11.20;99.90;;;;;;4992533;28;20510;-57
2023/10/22 04:41:56;;;;;;;6.80;1.60;;;11.10;99.90;;;;;;4991003;28;20050;-55
2023/10/22 04:44:22;;;;;;;3.92;1.33;;;11.20;99.90;;;;;;4991109;28;20112;-58
2023/10/22 04:46:47;;;;;;;3.40;1.42;;;11.20;99.90;;;;;;4990972;28;20026;-58
2023/10/22 04:49:13;;;;;;;7.28;1.83;;;11.10;99.90;;;;;;4990993;28;20463;-54
2023/10/22 04:51:39;;;;;;;14.70;2.35;;;11.10;99.90;;;;;;4992286;28;20425;-59
2023/10/22 04:54:05;;;;;;;6.85;1.88;;;11.20;99.90;;;;;;4992145;28;20045;-58
2023/10/22 04:56:32;;;;;;;4.70;1.77;;;11.20;99.90;;;;;;4992231;28;20033;-56
2023/10/22 04:58:58;;;;;;;2.55;1.48;;;11.30;99.90;;;;;;4992018;28;20015;-58
2023/10/22 05:01:23;;;;;;;5.43;1.98;;;11.20;99.90;;;;;;4992195;28;20023;-54
2023/10/22 05:03:49;;;;;;;8.20;1.70;;;11.30;99.90;;;;;;4992034;28;20030;-57
2023/10/22 05:06:14;;;;;;;4.85;1.38;;;11.20;99.90;;;;;;4992111;28;20105;-58
2023/10/22 05:08:40;;;;;;;2.78;1.25;;;11.20;99.90;;;;;;4991841;28;20110;-57
2023/10/22 05:11:12;;;;;;;7.75;2.83;;;11.20;99.90;;;;;;4992221;28;20039;-54
2023/10/22 05:13:38;;;;;;;4.88;1.45;;;11.20;99.90;;;;;;4992080;28;20088;-58
2023/10/22 05:16:03;;;;;;;3.55;1.65;;;11.20;99.90;;;;;;4992070;28;20109;-58
2023/10/22 05:18:29;;;;;;;7.60;2.88;;;11.20;99.90;;;;;;4990725;28;20034;-59
2023/10/22 05:21:05;;;;;;;6.18;1.90;;;11.20;99.90;;;;;;4991964;28;20026;-58
2023/10/22 05:23:32;;;;;;;4.88;1.50;;;11.20;99.90;;;;;;4992227;28;20467;-57
2023/10/22 05:26:09;;;;;;;7.03;2.00;;;11.10;99.90;;;;;;4993915;28;20023;-56
2023/10/22 05:28:35;;;;;;;5.40;2.25;;;11.10;99.90;;;;;;4995694;28;20401;-56
2023/10/22 05:31:01;;;;;;;10.55;2.50;;;11.10;99.90;;;;;;4995659;28;20030;-57
2023/10/22 05:33:27;;;;;;;5.10;2.60;;;11.10;99.90;;;;;;4995564;28;20112;-56
2023/10/22 05:35:52;;;;;;;4.57;1.92;;;11.00;99.90;;;;;;4995548;28;20027;-54
2023/10/22 05:38:18;;;;;;;5.57;1.80;;;11.00;99.90;;;;;;4995438;28;20026;-58
2023/10/22 05:40:43;;;;;;;3.20;1.85;;;11.00;99.90;;;;;;4995384;28;20022;-55
2023/10/22 05:43:09;;;;;;;3.63;1.90;;;11.00;99.90;;;;;;4995731;28;20033;-58
2023/10/22 05:45:35;;;;;;;8.52;2.08;;;11.00;99.90;;;;;;4995131;28;20061;-55
2023/10/22 05:48:00;;;;;;;3.28;1.80;;;11.00;99.90;;;;;;4995271;28;20506;-56
2023/10/22 05:50:26;;;;;;;6.75;2.08;;;11.00;99.90;;;;;;4995255;28;20042;-56
2023/10/22 05:52:52;;;;;;;6.70;1.83;;;11.00;99.90;;;;;;4995320;28;20030;-56
2023/10/22 05:55:18;;;;;;;6.72;1.85;;;11.00;99.90;;;;;;4993961;28;20019;-55
2023/10/22 05:57:45;;;;;;;9.80;2.83;;;11.00;99.90;;;;;;4995212;28;20491;-57
2023/10/22 06:00:11;;;;;;;4.70;1.70;;;11.00;99.90;;;;;;4993985;28;20406;-58
2023/10/22 06:02:37;;;;;;;5.75;1.65;;;11.00;99.90;;;;;;4995207;28;20027;-57
2023/10/22 06:05:04;;;;;;;4.75;1.55;;;10.90;99.90;;;;;;4995130;28;20027;-57
2023/10/22 06:07:29;;;;;;;6.10;1.80;;;11.10;99.90;;;;;;4995042;28;20041;-56
2023/10/22 06:09:55;;;;;;;9.10;1.88;;;11.10;99.90;;;;;;4995338;28;20022;-55
2023/10/22 06:12:20;;;;;;;9.32;3.08;;;11.20;99.90;;;;;;4994910;28;20085;-57
2023/10/22 06:14:46;;;;;;;6.50;2.40;;;11.20;99.90;;;;;;4994786;28;20073;-56
2023/10/22 06:17:12;;;;;;;4.10;1.63;;;11.40;99.90;;;;;;4993546;28;20185;-57
2023/10/22 06:19:38;;;;;;;9.75;1.75;;;11.50;99.90;;;;;;4995258;28;20374;-57
2023/10/22 06:22:03;;;;;;;6.63;1.88;;;11.70;99.90;;;;;;4994701;28;20027;-55
2023/10/22 06:24:29;;;;;;;7.30;1.77;;;11.90;99.90;;;;;;4993359;28;20033;-56
2023/10/22 06:26:54;;;;;;;6.00;1.60;;;11.90;99.90;;;;;;4994677;28;20030;-52
2023/10/22 06:29:20;;;;;;;6.85;1.55;;;11.90;99.90;;;;;;4993118;28;20026;-54
2023/10/22 06:31:45;;;;;;;5.38;1.33;;;11.90;99.90;;;;;;4994546;28;20062;-58
2023/10/22 06:34:11;;;;;;;8.85;2.35;;;12.10;99.90;;;;;;4993079;28;20113;-56
2023/10/22 06:36:36;;;;;;;12.43;3.45;;;12.10;99.90;;;;;;4994066;28;20073;-55
2023/10/22 06:39:02;;;;;;;10.75;1.95;;;12.20;99.90;;;;;;4992077;28;20480;-57
2023/10/22 06:41:27;;;;;;;6.60;1.23;;;12.20;99.90;;;;;;4992884;28;20035;-57
2023/10/22 06:43:53;;;;;;;6.47;1.90;;;12.30;99.90;;;;;;4992921;28;20395;-57
2023/10/22 06:46:20;;;;;;;4.03;1.40;;;12.30;99.90;;;;;;4977298;28;20030;-57
2023/10/22 06:48:46;;;;;;;15.43;2.17;;;12.30;99.90;;;;;;4974638;28;20023;-57
2023/10/22 06:51:16;;;;;;;11.75;1.95;;;12.40;99.90;;;;;;4973223;28;20096;-58
2023/10/22 06:53:43;;;;;;;11.27;2.10;;;12.30;99.90;;;;;;4994620;28;20117;-58
2023/10/22 06:56:09;;;;;;;11.45;1.92;;;12.20;99.90;;;;;;4993870;28;20014;-61
2023/10/22 06:58:39;;;;;;;4.53;1.30;;;12.30;99.90;;;;;;4993618;28;20049;-59
2023/10/22 07:01:12;;;;;;;7.40;1.85;;;12.40;99.90;;;;;;4992268;28;20027;-59
2023/10/22 07:03:43;;;;;;;9.95;2.08;;;12.40;99.90;;;;;;4993864;28;20116;-54
2023/10/22 07:06:09;;;;;;;8.98;2.15;;;12.50;99.90;;;;;;4993175;28;20109;-55
2023/10/22 07:08:35;;;;;;;7.13;2.60;;;12.60;99.90;;;;;;4991492;28;20030;-57
2023/10/22 07:11:01;;;;;;;13.68;2.35;;;12.70;99.90;;;;;;4992791;28;20097;-57
2023/10/22 07:13:26;;;;;;;5.05;1.52;;;12.80;99.90;;;;;;4993679;28;20034;-54
2023/10/22 07:15:53;;;;;;;7.10;1.73;;;12.90;99.90;;;;;;4992597;28;20019;-57
2023/10/22 07:18:19;;;;;;;7.30;1.98;;;13.00;99.90;;;;;;4992671;28;20026;-53
2023/10/22 07:20:44;;;;;;;7.05;1.40;;;13.10;99.90;;;;;;4993013;28;20398;-56
2023/10/22 07:23:10;;;;;;;6.47;1.48;;;13.30;99.90;;;;;;4993970;28;20030;-58
2023/10/22 07:25:36;;;;;;;7.57;2.65;;;13.30;99.90;;;;;;4993719;28;20030;-59
2023/10/22 07:28:03;;;;;;;5.55;1.52;;;13.40;99.90;;;;;;4993446;28;20084;-56
2023/10/22 07:30:29;;;;;;;8.48;2.03;;;13.50;99.90;;;;;;4993683;28;20101;-56
2023/10/22 07:32:55;;;;;;;6.90;1.80;;;13.60;99.90;;;;;;4992240;28;20033;-56
2023/10/22 07:35:21;;;;;;;11.48;1.90;;;13.60;99.90;;;;;;4993607;28;20022;-54
2023/10/22 07:37:47;;;;;;;6.60;2.08;;;13.70;99.90;;;;;;4992171;28;20029;-56
2023/10/22 07:40:13;;;;;;;10.05;2.03;;;13.70;99.90;;;;;;4992174;28;20097;-54
2023/10/22 07:42:42;;;;;;;7.90;2.22;;;13.80;99.90;;;;;;4991818;28;20482;-58
2023/10/22 07:45:09;;;;;;;11.88;1.85;;;13.90;99.90;;;;;;4991842;28;20031;-56
2023/10/22 07:47:35;;;;;;;9.02;2.97;;;13.70;99.90;;;;;;4993250;28;20044;-56
2023/10/22 07:50:02;;;;;;;6.18;1.83;;;13.90;99.90;;;;;;4991172;28;20068;-52
2023/10/22 07:52:30;;;;;;;5.90;2.20;;;13.90;99.90;;;;;;4991628;28;20030;-58
2023/10/22 07:54:56;;;;;;;10.73;2.30;;;14.00;99.90;;;;;;4993087;28;20030;-56
2023/10/22 07:57:21;;;;;;;5.55;1.60;;;13.90;99.90;;;;;;4991599;28;20023;-59
2023/10/22 07:59:47;;;;;;;8.95;1.63;;;14.10;99.90;;;;;;4993381;28;20105;-58
2023/10/22 08:02:13;;;;;;;8.20;2.28;;;14.10;99.90;;;;;;4992831;28;20088;-58
2023/10/22 08:04:38;;;;;;;12.25;2.05;;;14.20;99.90;;;;;;4992917;28;20026;-59
2023/10/22 08:07:04;;;;;;;7.40;2.08;;;14.30;99.90;;;;;;4992627;28;20402;-56
2023/10/22 08:09:30;;;;;;;10.57;1.80;;;14.40;99.90;;;;;;4991408;28;20169;-58
2023/10/22 08:11:56;;;;;;;5.07;1.75;;;14.40;99.90;;;;;;4992501;28;20097;-58
2023/10/22 08:14:22;;;;;;;11.35;1.73;;;14.50;99.90;;;;;;4992541;28;20050;-56
2023/10/22 08:16:48;;;;;;;7.82;1.88;;;14.50;99.90;;;;;;4992760;28;20022;-56
2023/10/22 08:19:14;;;;;;;7.13;2.03;;;14.60;99.90;;;;;;4992931;28;20050;-59
2023/10/22 08:21:39;;;;;;;4.32;1.30;;;14.70;99.90;;;;;;4991645;28;20376;-55
2023/10/22 08:24:06;;;;;;;8.10;2.05;;;14.80;99.90;;;;;;4993260;28;20274;-59
2023/10/22 08:26:31;;;;;;;4.53;1.20;;;14.80;99.90;;;;;;4993744;28;20042;-58
2023/10/22 08:28:57;;;;;;;8.27;1.60;;;14.90;99.90;;;;;;4993752;28;20046;-57
2023/10/22 08:31:22;;;;;;;3.78;1.25;;;14.80;99.90;;;;;;4991971;28;20030;-58
2023/10/22 08:33:48;;;;;;;7.93;1.85;;;14.80;99.90;;;;;;4993847;28;20077;-58
2023/10/22 08:36:13;;;;;;;5.85;2.13;;;14.80;99.90;;;;;;4993470;28;20022;-60
2023/10/22 08:38:39;;;;;;;4.95;2.10;;;14.90;99.90;;;;;;4993508;28;20065;-59
2023/10/22 08:41:13;;;;;;;7.68;2.47;;;14.90;99.90;;;;;;4993932;28;20031;-58
2023/10/22 08:43:43;;;;;;;9.10;2.10;;;14.70;99.90;;;;;;4997072;28;20054;-60
2023/10/22 08:46:09;;;;;;;7.00;1.92;;;14.70;99.90;;;;;;4996131;28;20492;-60
2023/10/22 08:48:36;;;;;;;9.60;2.65;;;14.60;99.90;;;;;;4996522;28;20026;-60
2023/10/22 08:51:03;;;;;;;7.05;2.08;;;14.60;99.90;;;;;;4996521;28;20037;-58
2023/10/22 08:53:29;;;;;;;7.93;1.80;;;14.50;99.90;;;;;;4995192;28;20133;-54
2023/10/22 08:55:56;;;;;;;5.72;1.67;;;14.40;99.90;;;;;;5004003;28;20065;-55
2023/10/22 08:58:22;;;;;;;10.68;2.60;;;14.30;99.90;;;;;;4992049;28;20105;-57
2023/10/22 09:00:48;;;;;;;11.25;1.88;;;14.30;99.90;;;;;;4993539;28;20085;-59
2023/10/22 09:03:16;;;;;;;9.02;1.45;;;14.30;99.90;;;;;;5000973;28;20030;-55
2023/10/22 09:05:42;;;;;;;7.15;2.13;;;14.20;99.90;;;;;;4999057;28;20037;-53
2023/10/22 09:08:08;;;;;;;10.70;1.95;;;14.10;99.90;;;;;;4996677;28;20054;-56
2023/10/22 09:10:36;;;;;;;11.88;2.65;;;14.10;99.90;;;;;;4997844;28;20482;-55
2023/10/22 09:13:15;;;;;;;7.20;1.80;;;14.10;99.90;;;;;;4995360;28;20088;-54
2023/10/22 09:15:45;;;;;;;7.72;1.70;;;14.20;99.90;;;;;;4996751;28;20093;-55
2023/10/22 09:18:11;;;;;;;9.75;1.90;;;14.20;99.90;;;;;;4998106;28;20031;-53
2023/10/22 09:20:38;;;;;;;7.13;1.70;;;14.30;99.90;;;;;;4995859;28;20022;-52
2023/10/22 09:23:22;;;;;;;7.47;1.50;;;14.40;99.90;;;;;;4995693;28;20021;-56
2023/10/22 09:25:58;;;;;;;10.23;1.83;;;14.50;99.90;;;;;;4992736;28;20386;-53
2023/10/22 09:28:28;;;;;;;12.82;3.30;;;14.70;99.90;;;;;;4992126;28;20030;-56
2023/10/22 09:31:00;;;;;;;7.93;1.60;;;14.90;99.90;;;;;;4994329;28;20031;-56
2023/10/22 09:33:39;;;;;;;12.10;2.63;;;15.20;99.90;;;;;;4994036;28;20457;-57
2023/10/22 09:36:07;;;;;;;8.50;1.83;;;15.40;99.90;;;;;;4994825;28;20102;-54
2023/10/22 09:38:47;;;;;;;6.32;1.77;;;15.30;99.90;;;;;;4978617;28;20550;-55
2023/10/22 09:41:23;;;;;;;6.07;1.75;;;15.20;99.90;;;;;;4976053;28;20027;-58
2023/10/22 09:43:52;;;;;;;8.60;2.22;;;15.20;99.90;;;;;;4976268;28;20034;-55
2023/10/22 09:46:19;;;;;;;5.18;1.40;;;15.10;99.90;;;;;;4975887;28;20038;-52
2023/10/22 09:48:50;;;;;;;5.60;1.70;;;15.00;99.90;;;;;;4976625;28;20118;-52
2023/10/22 09:51:17;;;;;;;9.65;2.08;;;15.00;99.90;;;;;;4995999;28;20125;-59
2023/10/22 09:53:52;;;;;;;8.80;1.75;;;15.00;99.90;;;;;;4997673;28;20532;-54
2023/10/22 09:56:20;;;;;;;8.07;2.35;;;14.90;99.90;;;;;;4996842;28;20406;-58
2023/10/22 09:58:48;;;;;;;10.63;2.13;;;14.80;99.90;;;;;;4995093;28;20027;-60
2023/10/22 10:01:14;;;;;;;8.02;2.58;;;14.80;99.90;;;;;;4996755;28;20023;-57
2023/10/22 10:03:41;;;;;;;13.50;2.95;;;14.70;99.90;;;;;;4997308;28;20026;-60
2023/10/22 10:06:08;;;;;;;10.05;1.90;;;14.70;99.90;;;;;;4997181;28;20034;-58
2023/10/22 10:08:38;;;;;;;15.45;2.40;;;14.80;99.90;;;;;;4996163;28;20026;-56
2023/10/22 10:11:06;;;;;;;7.13;2.10;;;14.80;99.90;;;;;;4994175;28;20375;-56
2023/10/22 10:13:32;;;;;;;13.18;2.58;;;14.70;99.90;;;;;;4989125;28;20498;-59
2023/10/22 10:16:02;;;;;;;9.52;2.42;;;14.70;99.90;;;;;;4994746;28;20084;-58
2023/10/22 10:19:02;;;;;;;11.38;1.80;;;14.80;99.90;;;;;;4994842;28;20019;-58
2023/10/22 10:21:34;;;;;;;12.38;2.17;;;14.90;99.90;;;;;;4995884;28;20094;-59
2023/10/22 10:24:19;;;;;;;10.55;1.98;;;15.00;99.90;;;;;;4995798;28;20084;-59
2023/10/22 10:26:50;;;;;;;;;;;15.00;99.90;;;;;;4988654;28;20113;-53
2023/10/22 10:29:16;;;;;;;8.43;2.28;;;15.00;99.90;;;;;;4998686;28;19910;-58
2023/10/22 10:31:50;;;;;;;12.20;1.92;;;15.20;99.90;;;;;;4997878;28;20030;-56
2023/10/22 10:34:31;;;;;;;7.82;2.97;;;15.40;99.90;;;;;;4992747;28;20029;-56
2023/10/22 10:37:07;;;;;;;11.80;2.08;;;15.70;99.90;;;;;;4992495;28;20022;-51
2023/10/22 10:39:41;;;;;;;7.90;1.73;;;16.00;99.90;;;;;;4994461;28;20077;-56
2023/10/22 10:42:07;;;;;;;12.32;2.13;;;16.10;99.90;;;;;;4994338;28;20084;-52
2023/10/22 10:44:58;;;;;;;8.95;2.00;;;16.20;99.90;;;;;;4994127;28;20034;-56
2023/10/22 10:47:24;;;;;;;15.05;3.65;;;16.30;99.90;;;;;;4992662;28;20022;-57
2023/10/22 10:50:10;;;;;;;13.27;1.75;;;16.40;99.90;;;;;;4994066;28;20073;-52
2023/10/22 10:52:41;;;;;;;5.55;1.83;;;16.30;99.90;;;;;;4993943;28;20034;-49
2023/10/22 10:55:20;;;;;;;24.52;16.20;;;16.20;99.90;;;;;;4993821;28;20030;-53
2023/10/22 10:57:50;;;;;;;11.88;4.70;;;16.40;99.90;;;;;;4994811;28;20046;-57
2023/10/22 11:00:28;;;;;;;15.90;3.60;;;16.60;99.90;;;;;;4993885;28;20030;-55
2023/10/22 11:02:56;;;;;;;11.15;3.22;;;16.70;99.90;;;;;;4994071;28;20019;-54
2023/10/22 11:05:42;;;;;;;13.18;2.65;;;16.70;99.90;;;;;;4992493;28;20022;-59
2023/10/22 11:08:18;;;;;;;12.60;2.17;;;16.80;99.90;;;;;;4993845;28;20102;-56
2023/10/22 11:10:45;;;;;;;5.97;1.42;;;16.90;99.90;;;;;;4993717;28;20033;-54
2023/10/22 11:13:11;;;;;;;6.85;2.40;;;16.90;99.90;;;;;;4993694;28;20033;-51
2023/10/22 11:15:37;;;;;;;9.55;2.10;;;16.90;99.90;;;;;;4993679;28;20034;-54
2023/10/22 11:18:08;;;;;;;11.90;2.63;;;16.80;99.90;;;;;;4993168;28;20026;-54
2023/10/22 11:20:34;;;;;;;6.97;1.60;;;16.70;99.90;;;;;;4993411;28;20026;-49
2023/10/22 11:23:00;;;;;;;9.10;1.63;;;16.70;99.90;;;;;;4993195;28;20027;-55
2023/10/22 11:25:27;;;;;;;6.95;1.77;;;16.50;99.90;;;;;;4991945;28;20033;-53
2023/10/22 11:27:53;;;;;;;9.00;1.98;;;16.40;99.90;;;;;;4973804;28;20046;-54
2023/10/22 11:30:38;;;;;;;6.35;1.85;;;16.30;99.90;;;;;;4973804;28;20027;-55
2023/10/22 11:33:10;;;;;;;10.52;1.85;;;16.30;99.90;;;;;;4973833;28;20143;-51
2023/10/22 11:35:37;;;;;;;6.30;2.50;;;16.20;99.90;;;;;;4974085;28;20034;-53
2023/10/22 11:38:03;;;;;;;11.82;2.58;;;16.20;99.90;;;;;;4974106;28;20034;-50
2023/10/22 11:40:37;;;;;;;10.05;2.13;;;16.30;99.90;;;;;;4973777;28;20019;-51
2023/10/22 11:43:24;;;;;;;12.85;2.00;;;16.30;99.90;;;;;;4985799;28;20477;-57
2023/10/22 11:46:00;;;;;;;11.27;2.22;;;16.30;99.90;;;;;;4993593;28;20028;-56
2023/10/22 11:48:29;;;;;;;5.15;1.60;;;16.40;99.90;;;;;;4993638;28;20485;-56
2023/10/22 11:50:56;;;;;;;11.13;2.50;;;16.40;99.90;;;;;;4993709;28;20037;-57
2023/10/22 11:53:21;;;;;;;7.65;2.08;;;16.40;99.90;;;;;;4993079;28;20057;-57
2023/10/22 11:55:47;;;;;;;7.65;2.33;;;16.40;99.90;;;;;;4993161;28;20470;-55
2023/10/22 11:58:25;;;;;;;11.82;2.05;;;16.40;99.90;;;;;;4992702;28;20025;-59
2023/10/22 12:00:51;;;;;;;13.20;2.58;;;16.40;99.90;;;;;;4992587;28;20069;-59
2023/10/22 12:03:17;;;;;;;8.52;2.10;;;16.40;99.90;;;;;;4975120;28;20486;-48
2023/10/22 12:05:43;;;;;;;13.48;2.58;;;16.40;99.90;;;;;;4989611;28;20088;-51
2023/10/22 12:08:09;;;;;;;18.27;2.67;;;16.40;99.90;;;;;;4988891;28;20593;-50
2023/10/22 12:10:34;;;;;;;7.40;1.63;;;16.40;99.90;;;;;;4988022;28;21823;-54
2023/10/22 12:13:01;;;;;;;7.25;2.35;;;16.40;99.90;;;;;;4988078;28;20046;-53
2023/10/22 12:15:26;;;;;;;8.20;1.95;;;16.40;99.90;;;;;;4989023;28;20077;-54
2023/10/22 12:17:53;;;;;;;11.45;5.18;;;16.40;99.90;;;;;;4987558;28;20018;-51
2023/10/22 12:20:20;;;;;;;15.50;4.82;;;16.40;99.90;;;;;;4988864;28;20026;-51
2023/10/22 12:22:45;;;;;;;56.63;31.75;;;16.30;99.90;;;;;;4986955;28;20022;-53
2023/10/22 12:25:11;;;;;;;7.72;2.28;;;16.30;99.90;;;;;;4988342;28;20034;-55
2023/10/22 12:27:37;;;;;;;3.53;1.33;;;16.30;99.90;;;;;;4988602;28;20026;-50
2023/10/22 12:30:03;;;;;;;7.30;2.85;;;16.30;99.90;;;;;;4989778;28;20068;-51
2023/10/22 12:32:28;;;;;;;13.38;3.30;;;16.30;99.90;;;;;;4987665;28;20471;-51
2023/10/22 12:34:54;;;;;;;14.00;3.15;;;16.30;99.90;;;;;;4987335;28;20058;-55
2023/10/22 12:37:20;;;;;;;5.70;1.60;;;16.40;99.90;;;;;;4990948;28;20457;-50
2023/10/22 12:39:45;;;;;;;6.60;1.50;;;16.40;99.90;;;;;;4992452;28;20031;-52
2023/10/22 12:42:12;;;;;;;7.53;1.83;;;16.40;99.90;;;;;;4992122;28;20022;-52
2023/10/22 12:44:42;;;;;;;6.15;1.40;;;16.50;99.90;;;;;;4984631;28;20053;-54
2023/10/22 12:47:12;;;;;;;7.80;1.77;;;16.50;99.90;;;;;;4972790;28;20053;-55